Time;durP1;ratioP1;P1;durP2;ratioP2;P2;SDS_P1;SDS_P2;PMS_P1;PMS_P2;Temp;Humidity;BMP_temperature;BMP_pressure;BME280_temperature;BME280_humidity;BME280_pressure;Samples;Min_cycle;Max_cycle;Signal;HPM_P1;HPM_P2
2021/12/09 00:01:47;;;;;;;0.00;0.00;;;;;;;2.33;81.84;98645.94;4979677;28;20037;-75
2021/12/09 00:04:16;;;;;;;0.10;0.10;;;;;;;2.25;81.83;98633.91;4970037;28;20034;-75
2021/12/09 00:06:44;;;;;;;0.00;0.00;;;;;;;2.36;81.94;98653.41;4970516;28;20047;-76
2021/12/09 00:09:13;;;;;;;1.00;1.00;;;;;;;2.35;81.69;98654.41;4973328;28;20027;-79
2021/12/09 00:11:45;;;;;;;0.22;0.22;;;;;;;2.34;81.73;98650.97;4974349;28;20035;-79
2021/12/09 00:14:18;;;;;;;0.00;0.00;;;;;;;2.40;81.74;98655.34;4976215;28;20023;-80
2021/12/09 00:16:45;;;;;;;0.15;0.15;;;;;;;2.35;81.75;98646.50;4974343;28;20031;-77
2021/12/09 00:19:10;;;;;;;0.10;0.10;;;;;;;2.43;81.81;98659.34;4975117;28;20026;-74
2021/12/09 00:21:36;;;;;;;0.00;0.00;;;;;;;2.40;81.52;98662.44;4974308;28;20018;-77
2021/12/09 00:24:02;;;;;;;0.00;0.00;;;;;;;2.43;81.74;98667.28;4973944;28;20534;-78
2021/12/09 00:26:28;;;;;;;0.00;0.00;;;;;;;2.42;81.23;98664.84;4986890;28;20402;-75
2021/12/09 00:28:53;;;;;;;0.00;0.00;;;;;;;2.43;81.24;98671.72;4975347;28;20085;-75
2021/12/09 00:31:19;;;;;;;0.30;0.30;;;;;;;2.41;81.45;98669.31;4973941;28;20130;-79
2021/12/09 00:33:46;;;;;;;0.00;0.00;;;;;;;2.39;81.57;98679.31;4974132;28;20117;-79
2021/12/09 00:36:15;;;;;;;0.00;0.00;;;;;;;2.40;81.33;98689.66;4973858;28;20497;-77
2021/12/09 00:38:42;;;;;;;0.00;0.00;;;;;;;2.37;81.09;98684.81;4974118;28;20109;-79
2021/12/09 00:41:10;;;;;;;0.00;0.00;;;;;;;2.37;80.74;98676.13;4978745;28;20041;-79
2021/12/09 00:43:36;;;;;;;0.10;0.10;;;;;;;2.29;80.85;98674.63;4973948;28;20505;-80
2021/12/09 00:46:03;;;;;;;0.00;0.00;;;;;;;2.30;80.50;98692.06;4981779;28;20046;-77
2021/12/09 00:48:28;;;;;;;0.00;0.00;;;;;;;2.28;80.15;98691.47;4973732;28;20033;-75
2021/12/09 00:50:55;;;;;;;0.00;0.00;;;;;;;2.27;80.00;98702.25;4973853;28;20117;-76
2021/12/09 00:53:21;;;;;;;0.00;0.00;;;;;;;2.22;79.88;98692.38;4974362;28;20062;-74
2021/12/09 00:55:47;;;;;;;0.00;0.00;;;;;;;2.19;79.73;98695.50;4974733;28;20066;-83
2021/12/09 00:58:12;;;;;;;0.00;0.00;;;;;;;2.09;80.20;98688.16;4973353;28;20022;-75
2021/12/09 01:00:38;;;;;;;0.00;0.00;;;;;;;2.06;80.03;98692.06;4973601;28;20054;-74
2021/12/09 01:03:03;;;;;;;0.00;0.00;;;;;;;1.79;79.99;98660.03;4989437;28;20117;-73
2021/12/09 01:05:29;;;;;;;0.00;0.00;;;;;;;2.01;80.13;98697.19;4985333;28;20051;-75
2021/12/09 01:07:56;;;;;;;0.25;0.25;;;;;;;1.90;80.32;98683.00;4996155;28;20068;-75
2021/12/09 01:10:21;;;;;;;0.00;0.00;;;;;;;1.84;80.31;98689.16;4991213;28;20042;-74
2021/12/09 01:12:47;;;;;;;0.00;0.00;;;;;;;1.89;80.39;98715.66;4994099;28;20418;-75
2021/12/09 01:15:15;;;;;;;0.00;0.00;;;;;;;1.91;80.46;98715.44;4992534;28;20470;-74
2021/12/09 01:17:40;;;;;;;0.00;0.00;;;;;;;1.83;80.79;98707.84;4977801;28;20030;-75
2021/12/09 01:20:09;;;;;;;0.00;0.00;;;;;;;1.70;80.43;98691.22;4993318;28;20093;-74
2021/12/09 01:22:39;;;;;;;0.00;0.00;;;;;;;1.81;80.51;98718.63;4993770;28;20034;-77
2021/12/09 01:25:07;;;;;;;0.00;0.00;;;;;;;1.80;80.77;98724.94;4976231;28;20088;-74
2021/12/09 01:27:36;;;;;;;0.20;0.20;;;;;;;1.57;81.13;98675.59;5011444;28;20040;-74
2021/12/09 01:30:09;;;;;;;0.00;0.00;;;;;;;1.49;81.36;98668.81;4995531;28;20088;-74
2021/12/09 01:32:35;;;;;;;0.13;0.13;;;;;;;1.69;82.00;98712.53;4995693;28;20034;-75
2021/12/09 01:35:01;;;;;;;0.00;0.00;;;;;;;1.63;81.73;98697.63;5010180;28;21742;-73
2021/12/09 01:37:27;;;;;;;0.10;0.10;;;;;;;1.60;81.96;98699.66;4993551;28;20109;-74
2021/12/09 01:39:52;;;;;;;0.00;0.00;;;;;;;1.60;82.02;98697.03;4978922;28;20129;-76
2021/12/09 01:42:18;;;;;;;0.00;0.00;;;;;;;1.62;82.48;98694.16;4976723;28;20030;-77
2021/12/09 01:44:43;;;;;;;0.32;0.32;;;;;;;1.61;82.31;98695.19;4975995;28;20026;-78
2021/12/09 01:47:09;;;;;;;0.00;0.00;;;;;;;1.61;82.10;98697.81;4993409;28;20038;-75
2021/12/09 01:49:35;;;;;;;0.00;0.00;;;;;;;1.61;82.21;98700.47;4975987;28;20066;-71
2021/12/09 01:52:00;;;;;;;0.00;0.00;;;;;;;1.63;82.11;98700.25;4996808;28;20030;-78
2021/12/09 01:54:25;;;;;;;0.00;0.00;;;;;;;1.61;81.85;98692.56;4995074;28;20477;-79
2021/12/09 01:56:52;;;;;;;0.00;0.00;;;;;;;1.55;81.76;98683.72;4995240;28;20038;-75
2021/12/09 01:59:18;;;;;;;0.00;0.00;;;;;;;1.64;81.74;98692.13;4994949;28;20030;-76
2021/12/09 02:01:44;;;;;;;0.08;0.08;;;;;;;1.62;81.94;98693.38;4991487;28;20409;-81
2021/12/09 02:04:11;;;;;;;0.00;0.00;;;;;;;1.67;81.79;98706.66;4991528;28;20083;-78
2021/12/09 02:06:40;;;;;;;0.63;0.63;;;;;;;1.66;81.18;98705.88;4975381;28;20062;-76
2021/12/09 02:09:12;;;;;;;0.00;0.00;;;;;;;1.65;81.66;98706.91;4992747;28;20031;-76
2021/12/09 02:11:39;;;;;;;0.52;0.52;;;;;;;1.63;80.90;98708.94;4989077;28;20030;-77
2021/12/09 02:14:05;;;;;;;0.00;0.00;;;;;;;1.57;81.37;98704.59;4994633;28;20121;-74
2021/12/09 02:16:31;;;;;;;0.00;0.00;;;;;;;1.63;80.90;98705.53;5012766;28;20037;-75
2021/12/09 02:18:57;;;;;;;0.00;0.00;;;;;;;1.58;80.79;98707.00;4991132;28;20034;-77
2021/12/09 02:21:26;;;;;;;0.00;0.00;;;;;;;1.59;81.15;98710.44;4974946;28;20258;-76
2021/12/09 02:23:55;;;;;;;0.00;0.00;;;;;;;1.55;80.80;98715.38;4975279;28;20061;-80
2021/12/09 02:26:25;;;;;;;0.00;0.00;;;;;;;1.52;81.29;98712.38;4989767;28;20459;-76
2021/12/09 02:28:53;;;;;;;0.00;0.00;;;;;;;1.45;81.03;98709.81;4994560;28;20438;-77
2021/12/09 02:31:20;;;;;;;0.00;0.00;;;;;;;1.38;80.98;98699.38;4993479;28;20080;-78
2021/12/09 02:33:45;;;;;;;0.00;0.00;;;;;;;1.42;81.06;98707.63;4974977;28;20104;-77
2021/12/09 02:36:11;;;;;;;0.00;0.00;;;;;;;1.38;81.42;98696.75;4974863;28;20019;-80
2021/12/09 02:38:43;;;;;;;0.00;0.00;;;;;;;1.36;80.96;98692.72;4992283;28;20502;-81
2021/12/09 02:41:14;;;;;;;0.00;0.00;;;;;;;1.34;81.30;98690.28;4974925;28;20121;-80
2021/12/09 02:43:40;;;;;;;0.00;0.00;;;;;;;1.31;81.51;98693.41;4975025;28;20520;-77
2021/12/09 02:46:06;;;;;;;0.00;0.00;;;;;;;1.26;81.38;98686.16;4974430;28;20026;-82
2021/12/09 02:48:31;;;;;;;0.00;0.00;;;;;;;1.28;81.21;98691.19;4974543;28;20030;-78
2021/12/09 02:50:57;;;;;;;0.00;0.00;;;;;;;1.24;81.54;98693.47;4974901;28;20018;-85
2021/12/09 02:53:22;;;;;;;0.00;0.00;;;;;;;1.19;81.39;98680.19;4974768;28;20080;-77
2021/12/09 02:55:48;;;;;;;0.00;0.00;;;;;;;1.20;81.54;98684.41;4978694;28;20042;-83
2021/12/09 02:58:14;;;;;;;0.00;0.00;;;;;;;1.18;81.47;98697.00;4974458;28;20035;-81
2021/12/09 03:01:05;;;;;;;0.00;0.00;;;;;;;0.84;81.84;98645.78;4974517;28;20486;-82
2021/12/09 03:03:31;;;;;;;0.00;0.00;;;;;;;1.14;81.95;98689.78;4990355;28;20045;-84
2021/12/09 03:05:58;;;;;;;0.00;0.00;;;;;;;1.10;81.94;98692.06;4993708;28;20054;-77
2021/12/09 03:08:35;;;;;;;0.00;0.00;;;;;;;1.04;82.71;98679.75;4993833;28;20073;-82
2021/12/09 03:11:09;;;;;;;0.10;0.10;;;;;;;1.07;82.47;98676.69;4987518;28;20547;-81
2021/12/09 03:13:37;;;;;;;0.00;0.00;;;;;;;0.96;82.42;98665.09;4974472;28;20051;-83
2021/12/09 03:16:04;;;;;;;0.00;0.00;;;;;;;0.99;82.01;98680.44;4974300;28;20410;-79
2021/12/09 03:18:31;;;;;;;0.00;0.00;;;;;;;1.01;82.00;98680.22;4973919;28;20022;-84
2021/12/09 03:20:56;;;;;;;0.00;0.00;;;;;;;0.97;82.35;98671.97;4974405;28;20125;-78
2021/12/09 03:23:23;;;;;;;0.00;0.00;;;;;;;0.94;82.13;98681.09;4978725;28;20125;-82
2021/12/09 03:25:50;;;;;;;0.00;0.00;;;;;;;0.92;82.05;98677.09;4974520;28;20542;-84
2021/12/09 03:28:16;;;;;;;0.00;0.00;;;;;;;0.90;82.47;98676.50;4974247;28;20037;-76
2021/12/09 03:30:41;;;;;;;0.00;0.00;;;;;;;0.91;82.26;98680.75;4974322;28;20046;-75
2021/12/09 03:33:07;;;;;;;0.00;0.00;;;;;;;0.87;82.55;98680.38;4974248;28;20034;-76
2021/12/09 03:35:32;;;;;;;0.10;0.10;;;;;;;0.90;82.57;98692.28;4974144;28;20065;-75
2021/12/09 03:38:00;;;;;;;0.00;0.00;;;;;;;0.64;82.52;98646.84;4974290;28;20037;-78
2021/12/09 03:40:25;;;;;;;0.00;0.00;;;;;;;0.87;82.55;98687.50;4973779;28;20037;-77
2021/12/09 03:42:51;;;;;;;0.00;0.00;;;;;;;0.82;82.31;98680.25;5007980;28;20437;-74
2021/12/09 03:45:16;;;;;;;0.00;0.00;;;;;;;0.86;82.75;98693.78;5014231;28;20404;-74
2021/12/09 03:47:43;;;;;;;0.00;0.00;;;;;;;0.85;82.72;98694.78;4997708;28;20025;-76
2021/12/09 03:50:13;;;;;;;0.00;0.00;;;;;;;0.83;82.41;98684.50;4997604;28;20041;-78
2021/12/09 03:52:38;;;;;;;0.00;0.00;;;;;;;0.83;82.37;98699.47;5015490;28;20036;-77
2021/12/09 03:55:06;;;;;;;0.00;0.00;;;;;;;0.86;82.55;98704.31;4993353;28;20034;-79
2021/12/09 03:57:32;;;;;;;0.00;0.00;;;;;;;0.80;82.25;98690.97;4977553;28;20398;-77
2021/12/09 03:59:57;;;;;;;0.00;0.00;;;;;;;0.70;82.34;98674.13;4978279;28;20033;-79
2021/12/09 04:02:23;;;;;;;0.22;0.22;;;;;;;0.78;82.38;98690.41;4978052;28;20030;-78
2021/12/09 04:04:48;;;;;;;0.00;0.00;;;;;;;0.71;82.35;98689.69;4977617;28;20139;-75
2021/12/09 04:07:14;;;;;;;0.00;0.00;;;;;;;0.73;82.37;98687.66;4986288;28;20038;-75
2021/12/09 04:09:40;;;;;;;0.00;0.00;;;;;;;0.75;82.34;98696.09;5014818;28;20092;-74
2021/12/09 04:12:06;;;;;;;0.00;0.00;;;;;;;0.70;82.57;98688.06;4983031;28;20022;-77
2021/12/09 04:14:32;;;;;;;0.00;0.00;;;;;;;0.69;82.54;98697.00;4977310;28;20028;-74
2021/12/09 04:16:58;;;;;;;0.00;0.00;;;;;;;0.75;82.81;98698.75;4977571;28;20576;-76
2021/12/09 04:19:23;;;;;;;0.00;0.00;;;;;;;0.70;82.81;98687.28;4977295;28;20035;-73
2021/12/09 04:21:49;;;;;;;0.00;0.00;;;;;;;0.67;83.05;98677.19;4997670;28;20018;-74
2021/12/09 04:24:16;;;;;;;0.00;0.00;;;;;;;0.63;83.28;98677.63;4996722;28;20026;-73
2021/12/09 04:26:46;;;;;;;0.50;0.50;;;;;;;0.70;83.27;98697.81;5001153;28;20045;-73
2021/12/09 04:29:12;;;;;;;0.00;0.00;;;;;;;0.71;83.45;98702.03;4977052;28;20030;-74
2021/12/09 04:31:38;;;;;;;0.00;0.00;;;;;;;0.71;83.29;98694.94;4993484;28;20512;-75
2021/12/09 04:34:04;;;;;;;0.00;0.00;;;;;;;0.64;83.59;98686.31;4977347;28;20029;-76
2021/12/09 04:36:30;;;;;;;0.00;0.00;;;;;;;0.77;83.74;98720.38;4976969;28;20045;-74
2021/12/09 04:38:56;;;;;;;0.00;0.00;;;;;;;0.78;83.65;98715.91;4994376;28;20026;-74
2021/12/09 04:41:22;;;;;;;0.00;0.00;;;;;;;0.75;83.72;98705.84;4987281;28;20038;-79
2021/12/09 04:43:47;;;;;;;0.00;0.00;;;;;;;0.78;83.65;98705.38;4977047;28;20618;-75
2021/12/09 04:46:15;;;;;;;0.00;0.00;;;;;;;0.80;83.35;98712.03;4977752;28;20026;-77
2021/12/09 04:48:40;;;;;;;0.00;0.00;;;;;;;0.77;82.89;98704.59;4977365;28;20417;-79
2021/12/09 04:51:06;;;;;;;0.00;0.00;;;;;;;0.79;83.47;98707.00;4977031;28;20018;-79
2021/12/09 04:53:32;;;;;;;0.00;0.00;;;;;;;0.74;83.14;98705.03;4988507;28;20420;-81
2021/12/09 04:55:58;;;;;;;0.00;0.00;;;;;;;0.74;83.03;98707.66;4989098;28;20030;-76
2021/12/09 04:58:25;;;;;;;0.10;0.10;;;;;;;0.75;83.58;98711.91;4979966;28;20045;-75
2021/12/09 05:00:53;;;;;;;0.00;0.00;;;;;;;0.71;83.37;98708.09;5013965;28;20026;-82
2021/12/09 05:03:18;;;;;;;0.00;0.00;;;;;;;0.72;83.45;98711.53;4995682;28;20023;-79
2021/12/09 05:05:47;;;;;;;0.00;0.00;;;;;;;0.74;83.56;98731.34;4976556;28;20039;-77
2021/12/09 05:08:15;;;;;;;0.00;0.00;;;;;;;0.71;83.60;98729.16;4986984;28;20034;-78
2021/12/09 05:11:11;;;;;;;0.00;0.00;;;;;;;0.64;84.42;98710.00;4976711;28;20062;-77
2021/12/09 05:13:38;;;;;;;0.00;0.00;;;;;;;0.68;84.13;98734.84;4976719;28;20117;-74
2021/12/09 05:16:06;;;;;;;0.20;0.20;;;;;;;0.75;84.12;98747.97;4994487;28;20500;-75
2021/12/09 05:18:35;;;;;;;0.00;0.00;;;;;;;0.75;83.67;98761.91;5005653;28;20268;-78
2021/12/09 05:21:02;;;;;;;0.00;0.00;;;;;;;0.74;84.47;98752.41;4986968;28;20042;-77
2021/12/09 05:23:28;;;;;;;0.20;0.20;;;;;;;0.75;84.33;98740.84;5008045;28;20021;-79
2021/12/09 05:25:53;;;;;;;0.00;0.00;;;;;;;0.75;84.02;98747.97;4983257;28;20081;-80
2021/12/09 05:28:27;;;;;;;0.00;0.00;;;;;;;0.76;83.64;98741.69;4981143;28;20065;-75
2021/12/09 05:33:36;;;;;;;0.00;0.00;;;;;;;0.71;83.95;98730.97;4996040;28;20041;-71
2021/12/09 05:36:04;;;;;;;0.00;0.00;;;;;;;0.72;83.42;98732.59;4975720;28;20026;-71
2021/12/09 05:38:29;;;;;;;0.00;0.00;;;;;;;0.70;83.78;98724.91;4975350;28;20066;-73
2021/12/09 05:40:55;;;;;;;0.00;0.00;;;;;;;0.80;84.07;98735.72;4992476;28;20073;-73
2021/12/09 05:43:21;;;;;;;0.00;0.00;;;;;;;0.75;84.08;98732.16;4992033;28;20054;-73
2021/12/09 05:45:47;;;;;;;0.00;0.00;;;;;;;0.80;84.30;98741.00;4993156;28;20026;-73
2021/12/09 05:48:14;;;;;;;0.00;0.00;;;;;;;0.79;84.28;98742.03;4975146;28;20030;-73
2021/12/09 05:50:40;;;;;;;0.00;0.00;;;;;;;0.78;84.02;98740.44;4993381;28;20030;-71
2021/12/09 05:53:07;;;;;;;0.00;0.00;;;;;;;0.80;84.14;98738.38;4993503;28;20031;-71
2021/12/09 05:55:33;;;;;;;0.00;0.00;;;;;;;0.95;84.28;98750.34;4993056;28;20108;-71
2021/12/09 05:57:58;;;;;;;0.00;0.00;;;;;;;0.91;84.29;98746.56;4993308;28;20489;-71
2021/12/09 06:00:24;;;;;;;0.00;0.00;;;;;;;0.76;84.15;98718.78;4975406;28;20478;-72
2021/12/09 06:02:49;;;;;;;0.00;0.00;;;;;;;1.06;84.15;98765.44;4993022;28;20026;-72
2021/12/09 06:05:15;;;;;;;0.00;0.00;;;;;;;1.10;83.66;98763.97;4975139;28;20494;-72
2021/12/09 06:07:40;;;;;;;0.00;0.00;;;;;;;1.13;83.13;98762.72;4992475;28;20027;-71
2021/12/09 06:10:07;;;;;;;0.00;0.00;;;;;;;1.20;82.62;98767.91;4992694;28;20466;-71
2021/12/09 06:12:34;;;;;;;0.00;0.00;;;;;;;1.19;82.49;98759.19;4992131;28;20117;-72
2021/12/09 06:14:59;;;;;;;0.80;0.80;;;;;;;1.29;82.51;98761.31;4992390;28;20120;-71
2021/12/09 06:17:25;;;;;;;0.00;0.00;;;;;;;1.29;82.04;98761.31;4991852;28;20541;-71
2021/12/09 06:19:50;;;;;;;0.00;0.00;;;;;;;1.30;82.01;98747.13;4992000;28;20054;-71
2021/12/09 06:22:16;;;;;;;0.00;0.00;;;;;;;1.46;81.81;98766.75;4991928;28;20034;-71
2021/12/09 06:24:42;;;;;;;0.00;0.00;;;;;;;1.52;80.84;98776.41;4991817;28;20046;-70
2021/12/09 06:27:07;;;;;;;0.00;0.00;;;;;;;1.51;81.19;98771.38;4992087;28;20034;-71
2021/12/09 06:29:34;;;;;;;0.00;0.00;;;;;;;1.53;81.19;98769.31;4991783;28;20105;-71
2021/12/09 06:32:00;;;;;;;0.00;0.00;;;;;;;1.67;80.98;98793.66;4991979;28;20037;-70
2021/12/09 06:34:25;;;;;;;0.00;0.00;;;;;;;1.63;80.58;98798.56;4974294;28;20042;-70
2021/12/09 06:36:51;;;;;;;0.00;0.00;;;;;;;1.67;80.71;98793.66;4974412;28;20118;-70
2021/12/09 06:39:17;;;;;;;0.00;0.00;;;;;;;1.78;80.85;98810.56;4991673;28;20029;-71
2021/12/09 06:41:43;;;;;;;0.00;0.00;;;;;;;1.89;80.92;98829.06;4991659;28;20545;-70
2021/12/09 06:44:09;;;;;;;0.00;0.00;;;;;;;1.93;80.90;98826.78;4991339;28;20042;-70
2021/12/09 06:46:35;;;;;;;0.00;0.00;;;;;;;2.06;80.75;98834.50;4991469;28;20026;-71
2021/12/09 06:49:00;;;;;;;0.00;0.00;;;;;;;2.08;80.98;98836.91;4991831;28;20037;-70
2021/12/09 06:51:26;;;;;;;0.00;0.00;;;;;;;2.12;80.73;98832.00;4991830;28;20546;-71
2021/12/09 06:53:51;;;;;;;0.00;0.00;;;;;;;2.21;80.77;98827.97;4992283;28;20035;-70
2021/12/09 06:56:17;;;;;;;0.00;0.00;;;;;;;2.30;80.36;98842.47;4991975;28;20064;-70
2021/12/09 06:58:42;;;;;;;0.00;0.00;;;;;;;2.42;80.16;98844.31;4992149;28;20128;-71
2021/12/09 07:01:08;;;;;;;0.00;0.00;;;;;;;2.43;80.15;98844.09;4974553;28;20478;-71
2021/12/09 07:03:38;;;;;;;0.00;0.00;;;;;;;2.36;80.25;98815.16;4991838;28;20034;-71
2021/12/09 07:06:06;;;;;;;0.05;0.05;;;;;;;2.53;80.08;98822.44;4991630;28;20047;-71
2021/12/09 07:08:38;;;;;;;0.00;0.00;;;;;;;2.64;79.89;98841.94;4991497;28;20613;-71
2021/12/09 07:11:04;;;;;;;0.40;0.40;;;;;;;2.67;79.31;98837.03;4990648;28;20031;-71
2021/12/09 07:13:30;;;;;;;0.30;0.30;;;;;;;2.72;80.36;98833.66;4991955;28;20057;-72
2021/12/09 07:15:58;;;;;;;0.10;0.10;;;;;;;2.67;80.41;98812.44;4991938;28;20029;-71
2021/12/09 07:18:25;;;;;;;0.15;0.15;;;;;;;2.93;79.60;98834.13;4973497;28;20022;-72
2021/12/09 07:20:54;;;;;;;0.00;0.00;;;;;;;2.85;79.43;98806.22;4991973;28;20484;-71
2021/12/09 07:23:19;;;;;;;0.00;0.00;;;;;;;2.99;78.49;98815.53;4991170;28;20030;-71
2021/12/09 07:25:45;;;;;;;1.02;1.02;;;;;;;2.99;77.85;98823.44;4991793;28;20034;-71
2021/12/09 07:28:11;;;;;;;0.05;0.05;;;;;;;3.11;77.40;98817.34;4991771;28;20034;-71
2021/12/09 07:30:36;;;;;;;1.85;0.95;;;;;;;3.18;77.56;98831.22;4991205;28;20022;-71
2021/12/09 07:33:02;;;;;;;0.00;0.00;;;;;;;3.18;78.54;98826.75;4991709;28;20406;-72
2021/12/09 07:35:30;;;;;;;0.00;0.00;;;;;;;3.18;77.24;98810.88;4991270;28;20026;-71
2021/12/09 07:37:57;;;;;;;0.00;0.00;;;;;;;3.27;77.09;98815.81;4991657;28;20105;-71
2021/12/09 07:40:23;;;;;;;0.00;0.00;;;;;;;3.36;77.02;98817.84;4991432;28;20137;-71
2021/12/09 07:42:49;;;;;;;0.00;0.00;;;;;;;3.37;76.95;98818.69;4991596;28;20109;-71
2021/12/09 07:45:15;;;;;;;0.05;0.05;;;;;;;3.46;77.28;98824.41;4991528;28;20030;-71
2021/12/09 07:47:43;;;;;;;0.00;0.00;;;;;;;3.57;77.00;98822.75;4973858;28;20033;-71
2021/12/09 07:50:13;;;;;;;0.00;0.00;;;;;;;3.48;77.11;98798.53;4991473;28;20030;-71
2021/12/09 07:52:40;;;;;;;0.20;0.20;;;;;;;3.67;76.47;98818.47;4991190;28;20026;-71
2021/12/09 07:55:05;;;;;;;0.68;0.63;;;;;;;3.83;76.52;98834.59;4991715;28;20034;-71
2021/12/09 07:57:33;;;;;;;1.10;1.10;;;;;;;3.63;76.26;98790.09;4990913;28;20033;-71
2021/12/09 07:59:59;;;;;;;8.52;1.50;;;;;;;3.93;75.97;98818.09;4991397;28;20027;-71
2021/12/09 08:02:25;;;;;;;0.20;0.20;;;;;;;4.03;75.69;98817.47;4991054;28;20106;-71
2021/12/09 08:04:50;;;;;;;0.10;0.10;;;;;;;4.05;75.45;98818.84;4973753;28;20136;-72
2021/12/09 08:07:15;;;;;;;0.00;0.00;;;;;;;4.21;75.60;98837.63;4991416;28;20467;-71
2021/12/09 08:09:41;;;;;;;0.00;0.00;;;;;;;4.24;74.78;98837.19;4991152;28;20035;-71
2021/12/09 08:12:07;;;;;;;0.30;0.30;;;;;;;4.27;75.30;98818.16;4973662;28;20034;-71
2021/12/09 08:14:32;;;;;;;0.63;0.63;;;;;;;4.35;74.38;98811.69;4990986;28;20038;-71
2021/12/09 08:17:33;;;;;;;0.30;0.30;;;;;;;4.32;73.67;98805.81;4989854;28;20506;-71
2021/12/09 08:19:59;;;;;;;0.20;0.20;;;;;;;4.13;73.03;98776.13;4990756;28;20036;-71
2021/12/09 08:22:25;;;;;;;0.52;0.52;;;;;;;4.35;73.28;98803.72;4973529;28;20023;-71
2021/12/09 08:24:51;;;;;;;0.28;0.28;;;;;;;4.41;73.09;98808.84;4991143;28;20041;-71
2021/12/09 08:27:17;;;;;;;0.10;0.10;;;;;;;4.41;72.85;98806.22;4973562;28;20371;-71
2021/12/09 08:29:42;;;;;;;1.85;1.75;;;;;;;4.33;73.31;98801.31;4974146;28;20027;-71
2021/12/09 08:32:08;;;;;;;1.05;0.98;;;;;;;4.36;73.37;98800.03;4995071;28;20418;-71
2021/12/09 08:34:33;;;;;;;0.00;0.00;;;;;;;4.36;73.35;98795.53;4994527;28;20493;-71
2021/12/09 08:36:59;;;;;;;0.00;0.00;;;;;;;4.49;73.83;98819.06;4977284;28;20026;-71
2021/12/09 08:39:24;;;;;;;0.10;0.10;;;;;;;4.43;73.79;98796.19;4994170;28;20038;-71
2021/12/09 08:41:50;;;;;;;5.25;1.10;;;;;;;4.38;74.01;98774.94;4994809;28;20034;-71
2021/12/09 08:44:15;;;;;;;0.00;0.00;;;;;;;4.48;74.31;98788.31;4976983;28;20093;-71
2021/12/09 08:46:40;;;;;;;0.65;0.65;;;;;;;4.46;72.88;98794.91;4994395;28;20508;-71
2021/12/09 08:49:08;;;;;;;0.17;0.17;;;;;;;4.41;73.79;98792.97;4976992;28;20030;-71
2021/12/09 08:51:33;;;;;;;0.45;0.45;;;;;;;4.53;74.07;98792.06;4994246;28;20038;-71
2021/12/09 08:53:59;;;;;;;1.15;1.05;;;;;;;4.46;72.55;98779.00;4994448;28;20026;-71
2021/12/09 08:56:25;;;;;;;0.63;0.63;;;;;;;4.35;70.81;98774.63;4994120;28;20030;-71
2021/12/09 08:58:51;;;;;;;0.17;0.17;;;;;;;4.32;71.86;98779.34;4994332;28;20030;-71
2021/12/09 09:01:16;;;;;;;1.30;1.30;;;;;;;4.24;71.35;98779.72;4994231;28;20088;-71
2021/12/09 09:03:42;;;;;;;0.17;0.17;;;;;;;4.22;71.42;98775.72;4994020;28;20034;-71
2021/12/09 09:06:07;;;;;;;1.50;1.40;;;;;;;4.21;71.77;98772.28;4994213;28;20078;-71
2021/12/09 09:08:33;;;;;;;0.00;0.00;;;;;;;4.11;71.64;98750.94;4993720;28;20027;-70
2021/12/09 09:10:58;;;;;;;0.17;0.17;;;;;;;4.14;72.12;98750.47;4993802;28;20034;-70
2021/12/09 09:13:24;;;;;;;0.63;0.47;;;;;;;4.08;72.41;98739.00;4976182;28;20044;-70
2021/12/09 09:15:50;;;;;;;0.15;0.15;;;;;;;4.11;72.97;98743.00;4994032;28;20030;-70
2021/12/09 09:18:17;;;;;;;0.17;0.17;;;;;;;4.23;72.46;98762.25;4994013;28;20037;-72
2021/12/09 09:20:44;;;;;;;3.00;2.28;;;;;;;4.24;72.07;98750.63;4976225;28;20035;-70
2021/12/09 09:23:12;;;;;;;0.28;0.22;;;;;;;4.27;73.23;98742.22;4993563;28;20449;-70
2021/12/09 09:25:39;;;;;;;;;;;;;;;4.36;74.18;98750.53;4994245;28;20030;-70
2021/12/09 09:28:05;;;;;;;0.40;0.40;;;;;;;4.31;73.73;98732.72;4993781;28;19910;-70
2021/12/09 09:30:36;;;;;;;0.90;0.90;;;;;;;4.32;74.63;98722.91;4993491;28;20043;-71
2021/12/09 09:33:05;;;;;;;0.40;0.40;;;;;;;4.42;75.56;98741.63;4993652;28;20415;-71
2021/12/09 09:35:31;;;;;;;0.20;0.20;;;;;;;4.41;75.55;98741.88;4975948;28;20038;-70
2021/12/09 09:37:57;;;;;;;4.28;2.55;;;;;;;4.37;76.27;98722.19;4976081;28;20466;-70
2021/12/09 09:40:28;;;;;;;0.30;0.30;;;;;;;4.39;77.71;98728.06;4993593;28;20037;-70
2021/12/09 09:43:04;;;;;;;0.00;0.00;;;;;;;4.31;76.97;98698.31;4975169;28;20041;-70
2021/12/09 09:45:30;;;;;;;0.68;0.68;;;;;;;4.39;76.99;98702.38;4975717;28;20522;-70
2021/12/09 09:47:56;;;;;;;1.58;1.48;;;;;;;4.42;77.45;98706.38;4993361;28;20042;-70
2021/12/09 09:50:22;;;;;;;0.30;0.30;;;;;;;4.42;76.80;98704.56;4993344;28;20042;-70
2021/12/09 09:52:48;;;;;;;0.25;0.25;;;;;;;4.38;78.36;98687.56;4975724;28;20556;-70
2021/12/09 09:55:20;;;;;;;0.93;0.93;;;;;;;4.51;78.27;98696.19;4993300;28;20030;-70
2021/12/09 09:57:46;;;;;;;1.95;1.05;;;;;;;4.55;78.79;98684.84;4993229;28;20030;-70
2021/12/09 10:00:13;;;;;;;1.38;1.35;;;;;;;4.68;77.11;98696.94;4992853;28;20031;-70
2021/12/09 10:02:39;;;;;;;0.80;0.80;;;;;;;4.69;77.97;98692.44;4975297;28;20022;-70
2021/12/09 10:05:07;;;;;;;2.30;2.10;;;;;;;4.69;78.09;98685.31;4992779;28;20050;-71
2021/12/09 10:07:34;;;;;;;3.20;2.45;;;;;;;4.75;78.14;98683.53;4975646;28;20403;-69
2021/12/09 10:10:00;;;;;;;0.50;0.50;;;;;;;4.72;77.67;98681.34;4993001;28;20548;-70
2021/12/09 10:12:26;;;;;;;1.38;1.05;;;;;;;4.78;77.57;98686.47;4992702;28;20461;-70
2021/12/09 10:14:54;;;;;;;0.25;0.25;;;;;;;4.84;77.81;98689.97;4992907;28;20118;-70
2021/12/09 10:17:29;;;;;;;2.45;1.58;;;;;;;4.90;77.68;98681.03;4975324;28;20510;-70
2021/12/09 10:19:59;;;;;;;0.73;0.73;;;;;;;4.92;77.89;98670.19;4992514;28;20035;-70
2021/12/09 10:22:29;;;;;;;0.93;0.93;;;;;;;5.07;77.75;98678.31;4992052;28;20033;-70
2021/12/09 10:24:57;;;;;;;0.05;0.05;;;;;;;5.03;77.57;98653.38;4992716;28;20026;-71
2021/12/09 10:27:28;;;;;;;0.22;0.22;;;;;;;5.18;76.46;98671.28;4992351;28;20097;-70
2021/12/09 10:30:01;;;;;;;4.80;2.65;;;;;;;5.29;75.97;98658.94;4992563;28;20061;-70
2021/12/09 10:32:32;;;;;;;0.28;0.28;;;;;;;5.39;75.95;98658.22;4992264;28;20076;-70
2021/12/09 10:35:20;;;;;;;0.22;0.22;;;;;;;5.44;75.35;98652.97;4992201;28;20045;-70
2021/12/09 10:37:51;;;;;;;0.22;0.22;;;;;;;5.46;75.46;98653.50;4992454;28;20044;-70
2021/12/09 10:40:30;;;;;;;1.17;1.17;;;;;;;5.56;75.56;98661.56;4992443;28;20462;-70
2021/12/09 10:43:01;;;;;;;0.50;0.50;;;;;;;5.61;75.93;98669.56;4992335;28;20030;-71
2021/12/09 10:45:33;;;;;;;0.47;0.47;;;;;;;5.70;75.50;98659.28;4992054;28;20062;-71
2021/12/09 10:48:17;;;;;;;0.47;0.47;;;;;;;5.69;74.30;98657.69;4992259;28;20033;-71
2021/12/09 10:51:24;;;;;;;1.63;1.52;;;;;;;5.65;73.48;98655.78;4992019;28;20034;-71
2021/12/09 10:53:50;;;;;;;0.88;0.88;;;;;;;5.68;74.22;98650.78;4991294;28;20434;-71
2021/12/09 10:56:30;;;;;;;0.10;0.10;;;;;;;5.78;73.82;98652.72;4992164;28;20030;-71
2021/12/09 10:58:57;;;;;;;0.10;0.10;;;;;;;5.84;74.05;98649.03;4974627;28;20030;-70
2021/12/09 11:01:24;;;;;;;0.20;0.20;;;;;;;5.84;73.59;98634.97;4992456;28;20044;-71
2021/12/09 11:04:08;;;;;;;0.97;0.97;;;;;;;5.72;73.31;98608.63;4992083;28;20080;-71
2021/12/09 11:06:42;;;;;;;0.00;0.00;;;;;;;5.93;73.14;98638.75;4974260;28;20121;-71
2021/12/09 11:09:09;;;;;;;0.35;0.35;;;;;;;5.91;72.44;98638.22;4991934;28;20027;-71
2021/12/09 11:11:40;;;;;;;3.38;3.10;;;;;;;5.79;71.87;98627.00;4991686;28;20117;-71
2021/12/09 11:14:12;;;;;;;0.70;0.70;;;;;;;5.83;71.64;98626.19;4991939;28;20026;-71
2021/12/09 11:16:44;;;;;;;0.85;0.85;;;;;;;5.81;72.17;98631.00;4991565;28;20034;-70
2021/12/09 11:19:54;;;;;;;1.15;1.15;;;;;;;5.72;73.24;98612.06;4991771;28;20030;-70
2021/12/09 11:22:09;;;;;;;1.70;1.60;;;;;;;5.64;74.31;98596.63;4990015;28;20413;-70
2021/12/09 11:24:40;;;;;;;0.80;0.80;;;;;;;5.64;74.87;98603.78;4991223;28;20037;-70
2021/12/09 11:27:13;;;;;;;1.40;1.40;;;;;;;5.63;75.17;98599.53;4991258;28;20496;-71
2021/12/09 11:29:46;;;;;;;0.85;0.85;;;;;;;5.61;75.43;98591.81;4991711;28;20034;-70
2021/12/09 11:35:00;;;;;;;;;;;;;;;5.65;75.83;98610.69;4991757;28;20093;-71
2021/12/09 11:40:02;;;;;;;1.15;0.90;;;;;;;5.73;76.88;98605.72;4991319;28;20057;-71
2021/12/09 11:43:02;;;;;;;0.00;0.00;;;;;;;5.74;76.95;98595.91;4991339;28;20106;-71
2021/12/09 11:45:23;;;;;;;1.60;1.55;;;;;;;5.80;76.36;98578.16;4990092;28;20049;-70
2021/12/09 11:47:51;;;;;;;0.82;0.82;;;;;;;5.89;76.96;98587.25;4991330;28;20065;-71
2021/12/09 11:50:20;;;;;;;0.10;0.10;;;;;;;6.01;76.54;98592.38;4973707;28;20035;-71
2021/12/09 11:52:47;;;;;;;0.93;0.93;;;;;;;6.01;76.58;98587.88;4991199;28;20045;-71